createdAt,value
2019-02-23T00:00:36.457Z,7.60
2019-02-23T00:03:11.481Z,7.60
2019-02-23T00:05:44.359Z,7.60
2019-02-23T00:08:17.202Z,7.50
2019-02-23T00:10:50.552Z,7.50
2019-02-23T00:13:23.503Z,7.50
2019-02-23T00:15:56.392Z,7.50
2019-02-23T00:18:29.355Z,7.40
2019-02-23T00:21:02.350Z,7.40
2019-02-23T00:23:35.261Z,7.40
2019-02-23T00:26:08.363Z,7.30
2019-02-23T00:28:41.405Z,7.30
2019-02-23T00:31:14.621Z,7.20
2019-02-23T00:33:47.530Z,7.20
2019-02-23T00:36:20.423Z,7.10
2019-02-23T00:38:53.253Z,7.10
2019-02-23T00:41:26.048Z,7.00
2019-02-23T00:43:58.832Z,7.10
2019-02-23T00:46:31.886Z,7.10
2019-02-23T00:49:04.695Z,7.00
2019-02-23T00:51:37.762Z,7.00
2019-02-23T00:54:10.543Z,7.00
2019-02-23T00:56:43.467Z,6.90
2019-02-23T00:59:16.621Z,7.00
2019-02-23T01:01:49.656Z,6.90
2019-02-23T01:04:22.402Z,6.90
2019-02-23T01:06:55.686Z,6.90
2019-02-23T01:09:28.728Z,6.90
2019-02-23T01:12:01.713Z,6.90
2019-02-23T01:14:35.087Z,6.80
2019-02-23T01:17:08.217Z,6.80
2019-02-23T01:19:47.846Z,6.80
2019-02-23T01:22:16.019Z,6.70
2019-02-23T01:24:48.862Z,6.70
2019-02-23T01:27:21.736Z,6.70
2019-02-23T01:29:54.821Z,6.60
2019-02-23T01:32:27.617Z,6.60
2019-02-23T01:35:00.521Z,6.50
2019-02-23T01:37:33.261Z,6.50
2019-02-23T01:40:08.437Z,6.50
2019-02-23T01:42:41.294Z,6.50
2019-02-23T01:45:14.298Z,6.50
2019-02-23T01:47:47.175Z,6.50
2019-02-23T01:50:20.159Z,6.40
2019-02-23T01:52:53.054Z,6.40
2019-02-23T01:55:26.002Z,6.40
2019-02-23T01:57:58.803Z,6.40
2019-02-23T02:00:32.948Z,6.40
2019-02-23T02:03:06.227Z,6.40
2019-02-23T02:05:39.303Z,6.40
2019-02-23T02:08:12.442Z,6.40
2019-02-23T02:10:45.569Z,6.30
2019-02-23T02:13:18.744Z,6.30
2019-02-23T02:15:51.615Z,6.30
2019-02-23T02:18:24.483Z,6.30
2019-02-23T02:20:58.238Z,6.30
2019-02-23T02:23:31.120Z,6.20
2019-02-23T02:26:04.017Z,6.20
2019-02-23T02:28:36.802Z,6.10
2019-02-23T02:31:09.679Z,6.10
2019-02-23T02:34:21.708Z,6.10
2019-02-23T02:36:54.702Z,6.00
2019-02-23T02:39:27.968Z,6.00
2019-02-23T02:42:00.977Z,6.00
2019-02-23T02:44:34.194Z,6.00
2019-02-23T02:47:07.051Z,5.90
2019-02-23T02:49:40.023Z,5.90
2019-02-23T02:52:32.338Z,5.80
2019-02-23T02:55:06.839Z,5.80
2019-02-23T02:57:39.877Z,5.70
2019-02-23T03:00:12.915Z,5.70
2019-02-23T03:02:46.075Z,5.70
2019-02-23T03:05:19.156Z,5.70
2019-02-23T03:07:52.021Z,5.60
2019-02-23T03:10:25.209Z,5.70
2019-02-23T03:12:58.580Z,5.60
2019-02-23T03:15:31.717Z,5.60
2019-02-23T03:18:04.688Z,5.60
2019-02-23T03:20:37.620Z,5.50
2019-02-23T03:23:10.380Z,5.40
2019-02-23T03:25:43.263Z,5.50
2019-02-23T03:28:16.329Z,5.40
2019-02-23T03:30:49.107Z,5.40
2019-02-23T03:33:22.139Z,5.40
2019-02-23T03:35:55.139Z,5.40
2019-02-23T03:38:27.988Z,5.30
2019-02-23T03:41:01.543Z,5.20
2019-02-23T03:43:34.389Z,5.20
2019-02-23T03:46:07.353Z,5.20
2019-02-23T03:48:40.338Z,5.20
2019-02-23T03:51:13.233Z,5.10
2019-02-23T03:53:46.225Z,5.10
2019-02-23T03:56:19.200Z,5.10
2019-02-23T03:58:52.170Z,5.00
2019-02-23T04:01:25.278Z,5.10
2019-02-23T04:03:58.145Z,5.00
2019-02-23T04:06:31.136Z,5.00
2019-02-23T04:09:05.111Z,5.00
2019-02-23T04:11:39.401Z,5.00
2019-02-23T04:14:12.185Z,5.00
2019-02-23T04:16:45.071Z,5.10
2019-02-23T04:19:18.136Z,5.10
2019-02-23T04:21:51.321Z,5.20
2019-02-23T04:24:24.144Z,5.30
2019-02-23T04:26:57.128Z,5.30
2019-02-23T04:29:30.185Z,5.30
2019-02-23T04:32:03.075Z,5.40
2019-02-23T04:34:36.031Z,5.30
2019-02-23T04:37:08.931Z,5.30
2019-02-23T04:39:41.730Z,5.30
2019-02-23T04:42:14.726Z,5.30
2019-02-23T04:44:47.585Z,5.30
2019-02-23T04:47:20.550Z,5.30
2019-02-23T04:49:54.271Z,5.30
2019-02-23T04:52:27.269Z,5.30
2019-02-23T04:55:00.325Z,5.40
2019-02-23T04:57:33.250Z,5.30
2019-02-23T05:00:08.722Z,5.30
2019-02-23T05:02:41.697Z,5.30
2019-02-23T05:05:14.644Z,5.20
2019-02-23T05:07:47.715Z,5.20
2019-02-23T05:10:20.726Z,5.20
2019-02-23T05:12:53.910Z,5.20
2019-02-23T05:15:26.764Z,5.10
2019-02-23T05:17:59.951Z,5.10
2019-02-23T05:20:39.524Z,5.10
2019-02-23T05:23:12.537Z,5.10
2019-02-23T05:25:45.375Z,5.10
2019-02-23T05:28:18.471Z,5.10
2019-02-23T05:30:51.239Z,5.10
2019-02-23T05:33:24.184Z,5.10
2019-02-23T05:35:57.125Z,5.10
2019-02-23T05:38:29.901Z,5.10
2019-02-23T05:41:02.702Z,5.10
2019-02-23T05:43:35.814Z,5.10
2019-02-23T05:46:08.928Z,5.00
2019-02-23T05:48:41.713Z,5.00
2019-02-23T05:51:14.566Z,5.00
2019-02-23T05:53:47.595Z,5.10
2019-02-23T05:56:20.602Z,5.00
2019-02-23T05:58:53.422Z,4.90
2019-02-23T06:01:26.423Z,4.90
2019-02-23T06:03:59.192Z,4.80
2019-02-23T06:06:32.007Z,4.80
2019-02-23T06:09:05.377Z,4.70
2019-02-23T06:11:38.428Z,4.70
2019-02-23T06:14:11.419Z,4.60
2019-02-23T06:16:44.196Z,4.60
2019-02-23T06:19:18.318Z,4.50
2019-02-23T06:21:54.186Z,4.40
2019-02-23T06:24:25.927Z,4.40
2019-02-23T06:26:58.936Z,4.40
2019-02-23T06:29:31.918Z,4.40
2019-02-23T06:32:04.912Z,4.30
2019-02-23T06:34:37.793Z,4.30
2019-02-23T06:37:10.922Z,4.20
2019-02-23T06:39:43.871Z,4.30
2019-02-23T06:42:17.386Z,4.20
2019-02-23T06:44:50.252Z,4.20
2019-02-23T06:47:23.261Z,4.20
2019-02-23T06:49:56.222Z,4.10
2019-02-23T06:52:29.165Z,4.10
2019-02-23T06:55:03.426Z,4.20
2019-02-23T06:57:36.552Z,4.10
2019-02-23T07:00:12.132Z,4.20
2019-02-23T07:02:45.163Z,4.20
2019-02-23T07:05:18.013Z,4.10
2019-02-23T07:07:52.032Z,4.20
2019-02-23T07:10:25.207Z,4.20
2019-02-23T07:12:58.227Z,4.20
2019-02-23T07:15:32.103Z,4.10
2019-02-23T07:18:05.939Z,4.10
2019-02-23T07:20:44.260Z,4.20
2019-02-23T07:23:13.913Z,4.20
2019-02-23T07:25:46.894Z,4.20
2019-02-23T07:28:19.690Z,4.30
2019-02-23T07:30:52.663Z,4.30
2019-02-23T07:33:32.851Z,4.40
2019-02-23T07:36:00.523Z,4.40
2019-02-23T07:38:35.535Z,4.30
2019-02-23T07:41:08.751Z,4.50
2019-02-23T07:43:42.028Z,4.50
2019-02-23T07:46:15.186Z,4.50
2019-02-23T07:48:48.152Z,4.50
2019-02-23T07:51:27.987Z,4.60
2019-02-23T07:54:01.240Z,4.60
2019-02-23T07:56:35.151Z,4.60
2019-02-23T07:59:08.483Z,4.80
2019-02-23T08:01:41.404Z,4.70
2019-02-23T08:04:14.439Z,4.70
2019-02-23T08:06:47.604Z,4.80
2019-02-23T08:09:20.722Z,4.80
2019-02-23T08:11:53.511Z,4.90
2019-02-23T08:14:26.687Z,4.80
2019-02-23T08:16:59.552Z,4.90
2019-02-23T08:19:32.608Z,4.90
2019-02-23T08:22:05.582Z,5.00
2019-02-23T08:24:38.572Z,5.10
2019-02-23T08:27:11.868Z,5.30
2019-02-23T08:29:44.689Z,5.30
2019-02-23T08:32:17.902Z,5.20
2019-02-23T08:34:51.188Z,5.00
2019-02-23T08:37:24.342Z,5.10
2019-02-23T08:39:57.105Z,5.20
2019-02-23T08:42:30.030Z,5.30
2019-02-23T08:45:03.103Z,5.30
2019-02-23T08:47:36.202Z,5.20
2019-02-23T08:50:10.468Z,5.30
2019-02-23T08:52:49.357Z,5.50
2019-02-23T08:55:18.509Z,5.60
2019-02-23T08:57:51.710Z,6.00
2019-02-23T09:00:24.790Z,5.90
2019-02-23T09:02:57.884Z,6.00
2019-02-23T09:05:30.965Z,6.00
2019-02-23T09:08:04.073Z,6.20
2019-02-23T09:10:37.034Z,6.70
2019-02-23T09:13:09.983Z,7.40
2019-02-23T09:15:42.915Z,7.90
2019-02-23T09:18:15.773Z,8.20
2019-02-23T09:20:48.760Z,8.30
2019-02-23T09:23:22.041Z,8.20
2019-02-23T09:25:57.786Z,8.40
2019-02-23T09:28:31.138Z,8.60
2019-02-23T09:31:04.234Z,8.60
2019-02-23T09:33:37.373Z,8.60
2019-02-23T09:36:10.417Z,8.80
2019-02-23T09:38:43.489Z,8.50
2019-02-23T09:41:16.665Z,8.50
2019-02-23T09:43:49.726Z,8.80
2019-02-23T09:46:22.864Z,9.00
2019-02-23T09:48:56.460Z,9.20
2019-02-23T09:51:29.375Z,9.50
2019-02-23T09:54:02.286Z,9.40
2019-02-23T09:56:35.625Z,9.40
2019-02-23T09:59:08.681Z,9.10
2019-02-23T10:01:41.914Z,9.10
2019-02-23T10:04:15.411Z,9.10
2019-02-23T10:06:48.378Z,8.90
2019-02-23T10:09:21.240Z,9.00
2019-02-23T10:11:54.238Z,9.50
2019-02-23T10:14:27.210Z,9.90
2019-02-23T10:17:00.324Z,10.40
2019-02-23T10:19:33.521Z,10.30
2019-02-23T10:22:06.592Z,10.30
2019-02-23T10:24:39.651Z,10.20
2019-02-23T10:27:12.907Z,10.30
2019-02-23T10:29:46.015Z,10.40
2019-02-23T10:32:20.144Z,10.30
2019-02-23T10:34:53.135Z,10.50
2019-02-23T10:37:26.044Z,10.60
2019-02-23T10:39:59.060Z,11.00
2019-02-23T10:42:32.303Z,11.40
2019-02-23T10:45:06.954Z,11.30
2019-02-23T10:47:40.922Z,11.20
2019-02-23T10:50:14.557Z,11.20
2019-02-23T10:52:47.621Z,11.40
2019-02-23T10:55:21.661Z,11.10
2019-02-23T10:57:55.110Z,10.70
2019-02-23T11:00:28.246Z,10.70
2019-02-23T11:03:01.374Z,10.70
2019-02-23T11:05:34.447Z,10.90
2019-02-23T11:08:07.506Z,11.10
2019-02-23T11:10:40.764Z,11.20
2019-02-23T11:13:13.857Z,11.30
2019-02-23T11:15:47.018Z,11.50
2019-02-23T11:18:20.116Z,12.00
2019-02-23T11:20:53.041Z,12.40
2019-02-23T11:23:26.040Z,12.40
2019-02-23T11:25:59.241Z,12.70
2019-02-23T11:28:32.226Z,12.90
2019-02-23T11:31:05.266Z,12.80
2019-02-23T11:33:38.400Z,12.70
2019-02-23T11:36:11.447Z,12.60
2019-02-23T11:38:44.398Z,12.60
2019-02-23T11:41:17.467Z,12.60
2019-02-23T11:43:50.572Z,12.80
2019-02-23T11:46:24.522Z,12.80
2019-02-23T11:48:57.610Z,12.90
2019-02-23T11:51:30.663Z,12.80
2019-02-23T11:54:03.771Z,13.10
2019-02-23T11:56:36.773Z,12.80
2019-02-23T11:59:09.957Z,13.20
2019-02-23T12:01:42.781Z,13.30
2019-02-23T12:04:15.667Z,13.40
2019-02-23T12:06:48.858Z,13.60
2019-02-23T12:09:21.725Z,13.80
2019-02-23T12:11:54.562Z,13.80
2019-02-23T12:14:27.783Z,13.30
2019-02-23T12:17:00.643Z,13.20
2019-02-23T12:19:33.615Z,13.40
2019-02-23T12:22:12.396Z,13.90
2019-02-23T12:24:41.191Z,14.20
2019-02-23T12:27:14.146Z,14.20
2019-02-23T12:29:47.052Z,13.60
2019-02-23T12:32:20.288Z,12.90
2019-02-23T12:34:53.367Z,12.60
2019-02-23T12:37:26.450Z,12.20
2019-02-23T12:39:59.288Z,12.30
2019-02-23T12:42:33.266Z,12.50
2019-02-23T12:45:06.691Z,12.50
2019-02-23T12:47:40.282Z,13.00
2019-02-23T12:50:13.482Z,13.10
2019-02-23T12:52:46.522Z,13.40
2019-02-23T12:55:19.536Z,13.40
2019-02-23T12:57:52.547Z,13.10
2019-02-23T13:00:25.543Z,13.40
2019-02-23T13:02:58.591Z,13.80
2019-02-23T13:05:31.412Z,13.40
2019-02-23T13:08:04.714Z,13.50
2019-02-23T13:10:37.662Z,13.70
2019-02-23T13:13:28.642Z,13.60
2019-02-23T13:16:09.518Z,13.50
2019-02-23T13:19:27.028Z,14.10
2019-02-23T13:22:50.758Z,14.00
2019-02-23T13:26:02.707Z,14.30
2019-02-23T13:29:11.163Z,14.70
2019-02-23T13:31:56.824Z,15.40
2019-02-23T13:35:26.799Z,14.70
2019-02-23T13:38:49.358Z,14.10
2019-02-23T13:41:29.654Z,14.50
2019-02-23T13:45:03.008Z,14.60
2019-02-23T13:48:11.199Z,14.70
2019-02-23T13:51:12.840Z,14.60
2019-02-23T13:54:39.167Z,14.60
2019-02-23T13:58:04.877Z,14.90
2019-02-23T14:01:17.949Z,15.30
2019-02-23T14:04:26.632Z,15.30
2019-02-23T14:07:30.182Z,15.20
2019-02-23T14:10:30.357Z,14.70
2019-02-23T14:13:30.995Z,15.00
2019-02-23T14:16:55.503Z,15.20
2019-02-23T14:20:05.308Z,14.90
2019-02-23T14:23:10.713Z,14.90
2019-02-23T14:26:02.691Z,15.90
2019-02-23T14:29:29.639Z,15.60
2019-02-23T14:32:55.652Z,15.10
2019-02-23T14:36:00.162Z,14.90
2019-02-23T14:39:27.399Z,14.40
2019-02-23T14:42:37.974Z,14.00
2019-02-23T14:45:56.405Z,14.00
2019-02-23T14:49:06.195Z,14.10
2019-02-23T14:52:15.632Z,14.10
2019-02-23T14:55:00.937Z,14.00
2019-02-23T14:57:54.900Z,14.60
2019-02-23T15:01:05.419Z,15.00
2019-02-23T15:04:17.189Z,14.20
2019-02-23T15:07:01.701Z,14.10
2019-02-23T15:09:57.109Z,14.00
2019-02-23T15:13:12.645Z,14.50
2019-02-23T15:16:38.487Z,14.00
2019-02-23T15:19:27.055Z,13.90
2019-02-23T15:22:30.804Z,14.40
2019-02-23T15:25:34.207Z,14.40
2019-02-23T15:28:37.866Z,14.10
2019-02-23T15:31:42.991Z,14.20
2019-02-23T15:34:48.700Z,14.00
2019-02-23T15:37:35.718Z,13.70
2019-02-23T15:40:35.043Z,13.20
2019-02-23T15:44:02.293Z,12.80
2019-02-23T15:46:59.490Z,12.60
2019-02-23T15:49:34.323Z,12.40
2019-02-23T15:52:07.695Z,12.30
2019-02-23T15:54:40.915Z,12.10
2019-02-23T15:57:13.913Z,12.00
2019-02-23T15:59:46.760Z,12.00
2019-02-23T16:02:19.925Z,11.90
2019-02-23T16:04:53.021Z,11.60
2019-02-23T16:07:26.181Z,11.60
2019-02-23T16:09:59.278Z,11.40
2019-02-23T16:12:32.365Z,11.30
2019-02-23T16:15:06.736Z,11.20
2019-02-23T16:17:39.785Z,11.10
2019-02-23T16:20:12.706Z,11.00
2019-02-23T16:22:45.501Z,10.90
2019-02-23T16:25:19.517Z,10.80
2019-02-23T16:27:52.580Z,10.70
2019-02-23T16:30:25.660Z,10.60
2019-02-23T16:32:58.955Z,10.50
2019-02-23T16:35:31.897Z,10.40
2019-02-23T16:38:04.756Z,10.30
2019-02-23T16:40:37.771Z,10.20
2019-02-23T16:43:10.755Z,10.10
2019-02-23T16:45:45.062Z,10.10
2019-02-23T16:48:18.071Z,9.90
2019-02-23T16:50:51.214Z,9.80
2019-02-23T16:53:24.125Z,9.80
2019-02-23T16:55:57.377Z,9.70
2019-02-23T16:58:31.296Z,9.60
2019-02-23T17:01:04.509Z,9.50
2019-02-23T17:03:37.520Z,9.50
2019-02-23T17:06:10.802Z,9.40
2019-02-23T17:08:43.963Z,9.40
2019-02-23T17:11:17.112Z,9.30
2019-02-23T17:13:50.038Z,9.20
2019-02-23T17:16:23.296Z,9.20
2019-02-23T17:18:56.664Z,9.10
2019-02-23T17:21:29.958Z,9.00
2019-02-23T17:24:03.001Z,8.90
2019-02-23T17:26:36.937Z,8.90
2019-02-23T17:29:10.250Z,8.90
2019-02-23T17:31:43.465Z,8.80
2019-02-23T17:34:16.466Z,8.80
2019-02-23T17:36:49.427Z,8.70
2019-02-23T17:39:22.786Z,8.70
2019-02-23T17:41:57.680Z,8.60
2019-02-23T17:44:30.983Z,8.50
2019-02-23T17:47:04.001Z,8.40
2019-02-23T17:49:37.160Z,8.40
2019-02-23T17:52:10.308Z,8.30
2019-02-23T17:54:43.377Z,8.30
2019-02-23T17:57:16.280Z,8.30
2019-02-23T17:59:49.560Z,8.20
2019-02-23T18:02:22.832Z,8.20
2019-02-23T18:04:55.757Z,8.20
2019-02-23T18:07:28.662Z,8.10
2019-02-23T18:10:01.588Z,8.10
2019-02-23T18:12:34.887Z,8.00
2019-02-23T18:15:08.061Z,8.00
2019-02-23T18:17:41.232Z,7.90
2019-02-23T18:20:14.167Z,7.90
2019-02-23T18:22:47.157Z,7.80
2019-02-23T18:25:20.213Z,7.80
2019-02-23T18:27:53.475Z,7.80
2019-02-23T18:30:26.383Z,7.70
2019-02-23T18:32:59.598Z,7.70
2019-02-23T18:35:32.611Z,7.60
2019-02-23T18:38:05.613Z,7.70
2019-02-23T18:40:38.662Z,7.70
2019-02-23T18:43:11.673Z,7.60
2019-02-23T18:45:47.595Z,7.60
2019-02-23T18:48:20.969Z,7.50
2019-02-23T18:50:53.908Z,7.50
2019-02-23T18:53:26.803Z,7.50
2019-02-23T18:56:19.101Z,7.50
2019-02-23T18:58:52.180Z,7.40
2019-02-23T19:01:24.927Z,7.30
2019-02-23T19:03:58.373Z,7.30
2019-02-23T19:06:31.522Z,7.30
2019-02-23T19:09:05.424Z,7.30
2019-02-23T19:11:40.250Z,7.30
2019-02-23T19:14:13.511Z,7.20
2019-02-23T19:16:46.703Z,7.10
2019-02-23T19:19:19.826Z,7.10
2019-02-23T19:21:53.123Z,7.10
2019-02-23T19:24:26.726Z,7.00
2019-02-23T19:26:59.725Z,7.00
2019-02-23T19:29:32.502Z,7.00
2019-02-23T19:32:05.550Z,7.00
2019-02-23T19:34:38.506Z,7.00
2019-02-23T19:37:11.506Z,6.90
2019-02-23T19:39:44.660Z,6.90
2019-02-23T19:42:18.643Z,6.90
2019-02-23T19:44:52.104Z,6.80
2019-02-23T19:47:29.597Z,6.80
2019-02-23T19:50:14.454Z,6.80
2019-02-23T19:52:47.251Z,6.80
2019-02-23T19:55:20.327Z,6.80
2019-02-23T19:57:53.307Z,6.70
2019-02-23T20:00:26.178Z,6.70
2019-02-23T20:02:59.446Z,6.70
2019-02-23T20:05:32.572Z,6.70
2019-02-23T20:08:05.739Z,6.70
2019-02-23T20:10:39.271Z,6.60
2019-02-23T20:13:12.068Z,6.60
2019-02-23T20:15:45.695Z,6.50
2019-02-23T20:18:18.721Z,6.50
2019-02-23T20:20:51.592Z,6.40
2019-02-23T20:23:24.518Z,6.40
2019-02-23T20:25:57.492Z,6.40
2019-02-23T20:28:31.604Z,6.30
2019-02-23T20:31:04.455Z,6.20
2019-02-23T20:33:37.488Z,6.30
2019-02-23T20:36:10.632Z,6.20
2019-02-23T20:38:43.670Z,6.20
2019-02-23T20:41:16.545Z,6.20
2019-02-23T20:43:49.665Z,6.20
2019-02-23T20:46:22.690Z,6.00
2019-02-23T20:48:55.600Z,6.00
2019-02-23T20:51:28.756Z,6.00
2019-02-23T20:54:01.888Z,5.90
2019-02-23T20:56:34.952Z,5.90
2019-02-23T20:59:08.003Z,6.00
2019-02-23T21:01:40.873Z,5.90
2019-02-23T21:04:13.895Z,5.90
2019-02-23T21:06:46.815Z,5.90
2019-02-23T21:09:19.749Z,5.90
2019-02-23T21:11:52.923Z,5.80
2019-02-23T21:14:25.713Z,5.80
2019-02-23T21:16:58.662Z,5.80
2019-02-23T21:19:31.755Z,5.80
2019-02-23T21:22:04.459Z,5.90
2019-02-23T21:24:38.350Z,6.00
2019-02-23T21:27:13.217Z,6.00
2019-02-23T21:29:46.475Z,6.00
2019-02-23T21:32:19.444Z,6.00
2019-02-23T21:34:52.488Z,5.90
2019-02-23T21:37:25.321Z,5.80
2019-02-23T21:39:58.139Z,5.80
2019-02-23T21:42:32.131Z,5.80
2019-02-23T21:45:05.100Z,5.70
2019-02-23T21:47:38.584Z,5.80
2019-02-23T21:50:13.385Z,5.80
2019-02-23T21:52:47.496Z,5.80
2019-02-23T21:55:20.644Z,5.90
2019-02-23T21:57:54.076Z,5.90
2019-02-23T22:00:27.131Z,5.80
2019-02-23T22:03:00.097Z,5.80
2019-02-23T22:05:32.990Z,5.80
2019-02-23T22:08:05.946Z,5.80
2019-02-23T22:10:39.054Z,5.70
2019-02-23T22:13:12.114Z,5.70
2019-02-23T22:15:45.191Z,5.70
2019-02-23T22:18:18.227Z,5.80
2019-02-23T22:20:50.977Z,5.70
2019-02-23T22:23:23.867Z,5.80
2019-02-23T22:25:57.069Z,5.80
2019-02-23T22:28:29.974Z,5.80
2019-02-23T22:31:03.110Z,5.80
2019-02-23T22:33:36.573Z,5.90
2019-02-23T22:36:09.577Z,5.80
2019-02-23T22:38:42.555Z,5.90
2019-02-23T22:41:15.683Z,5.80
2019-02-23T22:43:48.899Z,5.80
2019-02-23T22:46:21.911Z,5.70
2019-02-23T22:48:55.126Z,5.70
2019-02-23T22:51:27.980Z,5.70
2019-02-23T22:54:01.756Z,5.70
2019-02-23T22:56:34.775Z,5.60
2019-02-23T22:59:07.595Z,5.70
2019-02-23T23:01:40.995Z,5.60
2019-02-23T23:04:16.015Z,5.70
2019-02-23T23:06:48.940Z,5.60
2019-02-23T23:09:22.070Z,5.60
2019-02-23T23:11:54.995Z,5.60
2019-02-23T23:14:27.796Z,5.60
2019-02-23T23:17:00.782Z,5.50
2019-02-23T23:19:33.985Z,5.50
2019-02-23T23:22:06.935Z,5.50
2019-02-23T23:24:40.058Z,5.40
2019-02-23T23:27:13.126Z,5.40
2019-02-23T23:29:46.065Z,5.40
2019-02-23T23:32:19.155Z,5.40
2019-02-23T23:34:52.110Z,5.40
2019-02-23T23:37:24.975Z,5.40
2019-02-23T23:39:57.936Z,5.40
2019-02-23T23:42:30.877Z,5.40
2019-02-23T23:45:04.052Z,5.40
2019-02-23T23:47:36.999Z,5.40
2019-02-23T23:50:09.981Z,5.30
2019-02-23T23:52:43.049Z,5.30
2019-02-23T23:55:16.173Z,5.30
2019-02-23T23:57:57.830Z,5.20
